CheckWX is a tool to help pilots better visualize weather data.  It is not intended as a substitute for an official pre-flight weather briefing.

00:39:10 UTC

EBAW METAR
Antwerp International (Deurne) Airport
Antwerp, Belgium
Current

19 mins ago

EBAW 210020Z AUTO 05005KT CAVOK 14/03 Q1025
Observed
Apr-21 @ 00:20 UTC
Wind
  • 050° at 5 KTS
Visibility
10,000+ meters
Flight Rules
VFR
Cloud Levels
  • Clear skies
Temperature
14°C / 57°F
Dewpoint
C / 37°F
Humidity
48%
Altimeter
30.27" Hg
Pressure
1024.92 hPa
Previous

49 mins ago

EBAW 202350Z AUTO 05005KT CAVOK 14/04 Q1025
Observed
Apr-20 @ 23:50 UTC
Wind
  • 050° at 5 KTS
Visibility
10,000+ meters
Flight Rules
VFR
Cloud Levels
  • Clear skies
Temperature
14°C / 57°F
Dewpoint
C / 39°F
Humidity
51%
Altimeter
30.27" Hg
Pressure
1024.92 hPa
Previous

1 hour ago

EBAW 202320Z AUTO 06005KT CAVOK 15/03 Q1025
Observed
Apr-20 @ 23:20 UTC
Wind
  • 060° at 5 KTS
Visibility
10,000+ meters
Flight Rules
VFR
Cloud Levels
  • Clear skies
Temperature
15°C / 59°F
Dewpoint
C / 37°F
Humidity
45%
Altimeter
30.27" Hg
Pressure
1024.92 hPa